sensor_id;sensor_type;location;lat;lon;timestamp;P1;durP1;ratioP1;P2;durP2;ratioP2
58637;SDS011;54976;51.510;7.522;2023-07-20T00:00:01;19.70;;;12.45;;
58637;SDS011;54976;51.510;7.522;2023-07-20T00:03:13;28.10;;;14.20;;
58637;SDS011;54976;51.510;7.522;2023-07-20T00:06:19;22.02;;;12.73;;
58637;SDS011;54976;51.510;7.522;2023-07-20T00:09:19;17.20;;;12.70;;
58637;SDS011;54976;51.510;7.522;2023-07-20T00:12:21;18.63;;;12.63;;
58637;SDS011;54976;51.510;7.522;2023-07-20T00:15:22;22.15;;;12.30;;
58637;SDS011;54976;51.510;7.522;2023-07-20T00:18:23;22.27;;;12.48;;
58637;SDS011;54976;51.510;7.522;2023-07-20T00:21:24;13.57;;;10.57;;
58637;SDS011;54976;51.510;7.522;2023-07-20T00:24:25;17.80;;;12.38;;
58637;SDS011;54976;51.510;7.522;2023-07-20T00:27:25;18.42;;;11.80;;
58637;SDS011;54976;51.510;7.522;2023-07-20T00:30:26;20.35;;;12.75;;
58637;SDS011;54976;51.510;7.522;2023-07-20T00:33:27;19.77;;;13.10;;
58637;SDS011;54976;51.510;7.522;2023-07-20T00:36:31;19.50;;;11.32;;
58637;SDS011;54976;51.510;7.522;2023-07-20T00:39:32;21.48;;;11.25;;
58637;SDS011;54976;51.510;7.522;2023-07-20T00:42:32;22.10;;;12.35;;
58637;SDS011;54976;51.510;7.522;2023-07-20T00:45:34;21.48;;;12.00;;
58637;SDS011;54976;51.510;7.522;2023-07-20T00:48:36;24.42;;;13.07;;
58637;SDS011;54976;51.510;7.522;2023-07-20T00:51:37;26.38;;;12.75;;
58637;SDS011;54976;51.510;7.522;2023-07-20T00:54:38;20.63;;;12.30;;
58637;SDS011;54976;51.510;7.522;2023-07-20T00:57:41;24.73;;;13.25;;
58637;SDS011;54976;51.510;7.522;2023-07-20T01:00:42;17.58;;;11.48;;
58637;SDS011;54976;51.510;7.522;2023-07-20T01:03:42;23.13;;;10.52;;
58637;SDS011;54976;51.510;7.522;2023-07-20T01:10:16;18.65;;;11.23;;
58637;SDS011;54976;51.510;7.522;2023-07-20T01:13:25;24.70;;;12.18;;
58637;SDS011;54976;51.510;7.522;2023-07-20T01:16:28;16.27;;;9.63;;
58637;SDS011;54976;51.510;7.522;2023-07-20T01:19:30;16.38;;;10.70;;
58637;SDS011;54976;51.510;7.522;2023-07-20T01:29:35;20.67;;;12.25;;
58637;SDS011;54976;51.510;7.522;2023-07-20T01:32:52;17.17;;;9.85;;
58637;SDS011;54976;51.510;7.522;2023-07-20T01:38:58;24.83;;;11.60;;
58637;SDS011;54976;51.510;7.522;2023-07-20T01:41:59;16.23;;;10.93;;
58637;SDS011;54976;51.510;7.522;2023-07-20T01:45:00;18.75;;;10.48;;
58637;SDS011;54976;51.510;7.522;2023-07-20T01:48:01;19.55;;;11.43;;
58637;SDS011;54976;51.510;7.522;2023-07-20T01:51:02;17.63;;;11.70;;
58637;SDS011;54976;51.510;7.522;2023-07-20T01:54:02;27.98;;;12.43;;
58637;SDS011;54976;51.510;7.522;2023-07-20T01:57:03;26.85;;;12.45;;
58637;SDS011;54976;51.510;7.522;2023-07-20T02:00:04;28.77;;;14.75;;
58637;SDS011;54976;51.510;7.522;2023-07-20T02:03:06;34.67;;;14.13;;
58637;SDS011;54976;51.510;7.522;2023-07-20T02:06:07;29.95;;;15.35;;
58637;SDS011;54976;51.510;7.522;2023-07-20T02:09:08;22.52;;;13.88;;
58637;SDS011;54976;51.510;7.522;2023-07-20T02:12:09;36.22;;;14.38;;
58637;SDS011;54976;51.510;7.522;2023-07-20T02:15:10;30.92;;;15.27;;
58637;SDS011;54976;51.510;7.522;2023-07-20T02:18:10;40.50;;;15.30;;
58637;SDS011;54976;51.510;7.522;2023-07-20T02:21:11;31.90;;;16.08;;
58637;SDS011;54976;51.510;7.522;2023-07-20T02:24:12;26.58;;;14.50;;
58637;SDS011;54976;51.510;7.522;2023-07-20T02:27:13;43.60;;;16.67;;
58637;SDS011;54976;51.510;7.522;2023-07-20T02:30:14;35.10;;;17.08;;
58637;SDS011;54976;51.510;7.522;2023-07-20T02:33:16;44.08;;;17.40;;
58637;SDS011;54976;51.510;7.522;2023-07-20T02:36:16;32.50;;;17.00;;
58637;SDS011;54976;51.510;7.522;2023-07-20T02:39:17;27.08;;;14.57;;
58637;SDS011;54976;51.510;7.522;2023-07-20T02:42:18;39.10;;;15.77;;
58637;SDS011;54976;51.510;7.522;2023-07-20T02:45:19;31.50;;;14.77;;
58637;SDS011;54976;51.510;7.522;2023-07-20T02:48:20;25.45;;;15.38;;
58637;SDS011;54976;51.510;7.522;2023-07-20T02:51:21;37.85;;;16.08;;
58637;SDS011;54976;51.510;7.522;2023-07-20T02:54:21;29.60;;;15.48;;
58637;SDS011;54976;51.510;7.522;2023-07-20T02:57:22;31.23;;;13.55;;
58637;SDS011;54976;51.510;7.522;2023-07-20T03:00:23;31.40;;;13.23;;
58637;SDS011;54976;51.510;7.522;2023-07-20T03:03:23;40.50;;;14.23;;
58637;SDS011;54976;51.510;7.522;2023-07-20T03:06:24;31.52;;;14.32;;
58637;SDS011;54976;51.510;7.522;2023-07-20T03:09:25;25.10;;;13.02;;
58637;SDS011;54976;51.510;7.522;2023-07-20T03:12:25;18.25;;;10.40;;
58637;SDS011;54976;51.510;7.522;2023-07-20T03:15:27;12.68;;;9.63;;
58637;SDS011;54976;51.510;7.522;2023-07-20T03:18:27;17.73;;;10.80;;
58637;SDS011;54976;51.510;7.522;2023-07-20T03:21:28;18.67;;;13.02;;
58637;SDS011;54976;51.510;7.522;2023-07-20T03:24:29;32.53;;;15.00;;
58637;SDS011;54976;51.510;7.522;2023-07-20T03:27:29;23.48;;;14.13;;
58637;SDS011;54976;51.510;7.522;2023-07-20T03:30:30;25.27;;;14.38;;
58637;SDS011;54976;51.510;7.522;2023-07-20T03:33:31;43.38;;;16.00;;
58637;SDS011;54976;51.510;7.522;2023-07-20T03:36:32;25.85;;;14.25;;
58637;SDS011;54976;51.510;7.522;2023-07-20T03:39:33;28.95;;;14.95;;
58637;SDS011;54976;51.510;7.522;2023-07-20T03:42:33;25.25;;;14.18;;
58637;SDS011;54976;51.510;7.522;2023-07-20T03:45:34;28.40;;;15.27;;
58637;SDS011;54976;51.510;7.522;2023-07-20T03:48:34;29.65;;;14.70;;
58637;SDS011;54976;51.510;7.522;2023-07-20T03:51:36;28.95;;;15.70;;
58637;SDS011;54976;51.510;7.522;2023-07-20T03:54:36;28.13;;;14.63;;
58637;SDS011;54976;51.510;7.522;2023-07-20T03:57:37;35.90;;;15.40;;
58637;SDS011;54976;51.510;7.522;2023-07-20T04:00:37;33.90;;;16.02;;
58637;SDS011;54976;51.510;7.522;2023-07-20T04:03:38;43.28;;;16.08;;
58637;SDS011;54976;51.510;7.522;2023-07-20T04:06:39;33.10;;;16.55;;
58637;SDS011;54976;51.510;7.522;2023-07-20T04:09:40;31.05;;;16.13;;
58637;SDS011;54976;51.510;7.522;2023-07-20T04:12:40;25.63;;;14.63;;
58637;SDS011;54976;51.510;7.522;2023-07-20T04:15:41;33.58;;;16.17;;
58637;SDS011;54976;51.510;7.522;2023-07-20T04:18:43;36.63;;;17.52;;
58637;SDS011;54976;51.510;7.522;2023-07-20T04:21:43;29.60;;;16.98;;
58637;SDS011;54976;51.510;7.522;2023-07-20T04:24:44;32.65;;;17.77;;
58637;SDS011;54976;51.510;7.522;2023-07-20T04:27:45;43.92;;;19.63;;
58637;SDS011;54976;51.510;7.522;2023-07-20T04:30:48;54.55;;;25.40;;
58637;SDS011;54976;51.510;7.522;2023-07-20T04:33:50;51.67;;;27.63;;
58637;SDS011;54976;51.510;7.522;2023-07-20T04:36:51;60.50;;;29.13;;
58637;SDS011;54976;51.510;7.522;2023-07-20T04:39:51;77.10;;;31.15;;
58637;SDS011;54976;51.510;7.522;2023-07-20T04:42:52;62.95;;;30.40;;
58637;SDS011;54976;51.510;7.522;2023-07-20T04:45:53;52.30;;;27.63;;
58637;SDS011;54976;51.510;7.522;2023-07-20T04:48:53;55.03;;;24.40;;
58637;SDS011;54976;51.510;7.522;2023-07-20T04:51:54;44.80;;;24.95;;
58637;SDS011;54976;51.510;7.522;2023-07-20T04:54:54;37.83;;;22.33;;
58637;SDS011;54976;51.510;7.522;2023-07-20T04:57:55;43.33;;;23.20;;
58637;SDS011;54976;51.510;7.522;2023-07-20T05:00:56;30.70;;;20.00;;
58637;SDS011;54976;51.510;7.522;2023-07-20T05:03:56;34.53;;;21.30;;
58637;SDS011;54976;51.510;7.522;2023-07-20T05:06:57;25.27;;;16.50;;
58637;SDS011;54976;51.510;7.522;2023-07-20T05:09:58;25.77;;;15.70;;
58637;SDS011;54976;51.510;7.522;2023-07-20T05:12:59;30.73;;;17.17;;
58637;SDS011;54976;51.510;7.522;2023-07-20T05:15:59;30.30;;;16.48;;
58637;SDS011;54976;51.510;7.522;2023-07-20T05:19:00;29.17;;;16.65;;
58637;SDS011;54976;51.510;7.522;2023-07-20T05:22:01;23.90;;;14.27;;
58637;SDS011;54976;51.510;7.522;2023-07-20T05:25:01;21.92;;;14.80;;
58637;SDS011;54976;51.510;7.522;2023-07-20T05:28:02;21.95;;;14.07;;
58637;SDS011;54976;51.510;7.522;2023-07-20T05:31:03;20.42;;;13.38;;
58637;SDS011;54976;51.510;7.522;2023-07-20T05:34:04;19.67;;;12.63;;
58637;SDS011;54976;51.510;7.522;2023-07-20T05:37:04;11.77;;;10.23;;
58637;SDS011;54976;51.510;7.522;2023-07-20T05:40:05;12.63;;;10.15;;
58637;SDS011;54976;51.510;7.522;2023-07-20T05:43:07;15.43;;;10.23;;
58637;SDS011;54976;51.510;7.522;2023-07-20T05:46:08;19.85;;;11.20;;
58637;SDS011;54976;51.510;7.522;2023-07-20T05:49:09;13.70;;;9.70;;
58637;SDS011;54976;51.510;7.522;2023-07-20T05:52:10;15.60;;;10.50;;
58637;SDS011;54976;51.510;7.522;2023-07-20T05:55:11;17.13;;;10.45;;
58637;SDS011;54976;51.510;7.522;2023-07-20T05:58:11;12.27;;;8.90;;
58637;SDS011;54976;51.510;7.522;2023-07-20T06:01:12;16.40;;;10.50;;
58637;SDS011;54976;51.510;7.522;2023-07-20T06:04:12;13.70;;;8.52;;
58637;SDS011;54976;51.510;7.522;2023-07-20T06:07:13;9.05;;;7.82;;
58637;SDS011;54976;51.510;7.522;2023-07-20T06:10:14;15.80;;;8.32;;
58637;SDS011;54976;51.510;7.522;2023-07-20T06:13:14;9.07;;;6.57;;
58637;SDS011;54976;51.510;7.522;2023-07-20T06:16:15;12.10;;;8.05;;
58637;SDS011;54976;51.510;7.522;2023-07-20T06:19:16;10.38;;;7.32;;
58637;SDS011;54976;51.510;7.522;2023-07-20T06:22:16;8.80;;;7.30;;
58637;SDS011;54976;51.510;7.522;2023-07-20T06:25:17;7.13;;;5.97;;
58637;SDS011;54976;51.510;7.522;2023-07-20T06:28:18;9.38;;;6.70;;
58637;SDS011;54976;51.510;7.522;2023-07-20T06:31:18;8.18;;;6.05;;
58637;SDS011;54976;51.510;7.522;2023-07-20T06:34:19;5.30;;;4.80;;
58637;SDS011;54976;51.510;7.522;2023-07-20T06:37:19;8.98;;;6.03;;
58637;SDS011;54976;51.510;7.522;2023-07-20T06:40:20;8.45;;;6.35;;
58637;SDS011;54976;51.510;7.522;2023-07-20T06:43:21;8.95;;;5.97;;
58637;SDS011;54976;51.510;7.522;2023-07-20T06:46:22;7.10;;;5.65;;
58637;SDS011;54976;51.510;7.522;2023-07-20T06:49:26;12.07;;;5.95;;
58637;SDS011;54976;51.510;7.522;2023-07-20T06:52:27;7.53;;;5.82;;
58637;SDS011;54976;51.510;7.522;2023-07-20T06:55:28;7.00;;;5.30;;
58637;SDS011;54976;51.510;7.522;2023-07-20T06:58:29;7.97;;;5.03;;
58637;SDS011;54976;51.510;7.522;2023-07-20T07:01:29;8.20;;;5.53;;
58637;SDS011;54976;51.510;7.522;2023-07-20T07:04:31;5.90;;;4.78;;
58637;SDS011;54976;51.510;7.522;2023-07-20T07:07:31;7.97;;;5.10;;
58637;SDS011;54976;51.510;7.522;2023-07-20T07:10:35;4.22;;;3.70;;
58637;SDS011;54976;51.510;7.522;2023-07-20T07:13:36;2.97;;;2.67;;
58637;SDS011;54976;51.510;7.522;2023-07-20T07:16:37;4.93;;;2.40;;
58637;SDS011;54976;51.510;7.522;2023-07-20T07:19:38;3.35;;;3.05;;
58637;SDS011;54976;51.510;7.522;2023-07-20T07:22:39;5.45;;;3.70;;
58637;SDS011;54976;51.510;7.522;2023-07-20T07:25:39;5.10;;;2.65;;
58637;SDS011;54976;51.510;7.522;2023-07-20T07:28:41;4.03;;;2.60;;
58637;SDS011;54976;51.510;7.522;2023-07-20T07:31:42;5.53;;;2.85;;
58637;SDS011;54976;51.510;7.522;2023-07-20T07:34:43;4.57;;;3.83;;
58637;SDS011;54976;51.510;7.522;2023-07-20T07:37:46;3.27;;;2.20;;
58637;SDS011;54976;51.510;7.522;2023-07-20T07:40:46;2.53;;;2.10;;
58637;SDS011;54976;51.510;7.522;2023-07-20T07:43:47;2.60;;;2.22;;
58637;SDS011;54976;51.510;7.522;2023-07-20T07:46:48;2.28;;;2.03;;
58637;SDS011;54976;51.510;7.522;2023-07-20T07:49:49;1.27;;;1.10;;
58637;SDS011;54976;51.510;7.522;2023-07-20T07:52:50;1.58;;;1.48;;
58637;SDS011;54976;51.510;7.522;2023-07-20T07:55:50;2.70;;;0.93;;
58637;SDS011;54976;51.510;7.522;2023-07-20T07:58:51;0.88;;;0.80;;
58637;SDS011;54976;51.510;7.522;2023-07-20T08:01:51;2.05;;;0.90;;
58637;SDS011;54976;51.510;7.522;2023-07-20T08:04:52;0.88;;;0.82;;
58637;SDS011;54976;51.510;7.522;2023-07-20T08:07:53;1.13;;;0.90;;
58637;SDS011;54976;51.510;7.522;2023-07-20T08:10:54;1.42;;;1.23;;
58637;SDS011;54976;51.510;7.522;2023-07-20T08:13:55;2.40;;;1.80;;
58637;SDS011;54976;51.510;7.522;2023-07-20T08:16:56;4.32;;;2.13;;
58637;SDS011;54976;51.510;7.522;2023-07-20T08:19:56;3.72;;;2.30;;
58637;SDS011;54976;51.510;7.522;2023-07-20T08:22:57;3.22;;;2.00;;
58637;SDS011;54976;51.510;7.522;2023-07-20T08:26:00;2.70;;;2.10;;
58637;SDS011;54976;51.510;7.522;2023-07-20T08:29:01;3.05;;;1.25;;
58637;SDS011;54976;51.510;7.522;2023-07-20T08:32:02;3.45;;;0.90;;
58637;SDS011;54976;51.510;7.522;2023-07-20T08:35:04;0.80;;;0.80;;
58637;SDS011;54976;51.510;7.522;2023-07-20T08:38:06;2.47;;;1.23;;
58637;SDS011;54976;51.510;7.522;2023-07-20T08:41:08;0.90;;;0.60;;
58637;SDS011;54976;51.510;7.522;2023-07-20T08:44:09;2.45;;;0.80;;
58637;SDS011;54976;51.510;7.522;2023-07-20T08:47:11;1.35;;;0.45;;
58637;SDS011;54976;51.510;7.522;2023-07-20T08:50:13;3.33;;;1.08;;
58637;SDS011;54976;51.510;7.522;2023-07-20T08:53:16;1.85;;;1.33;;
58637;SDS011;54976;51.510;7.522;2023-07-20T08:56:16;2.70;;;1.05;;
58637;SDS011;54976;51.510;7.522;2023-07-20T08:59:18;1.13;;;0.70;;
58637;SDS011;54976;51.510;7.522;2023-07-20T09:02:21;2.10;;;0.77;;
58637;SDS011;54976;51.510;7.522;2023-07-20T09:05:25;1.98;;;0.70;;
58637;SDS011;54976;51.510;7.522;2023-07-20T09:08:25;1.80;;;0.80;;
58637;SDS011;54976;51.510;7.522;2023-07-20T09:11:26;1.02;;;0.70;;
58637;SDS011;54976;51.510;7.522;2023-07-20T09:14:26;0.55;;;0.32;;
58637;SDS011;54976;51.510;7.522;2023-07-20T09:17:31;0.80;;;0.43;;
58637;SDS011;54976;51.510;7.522;2023-07-20T09:20:32;0.88;;;0.30;;
58637;SDS011;54976;51.510;7.522;2023-07-20T09:23:34;0.88;;;0.50;;
58637;SDS011;54976;51.510;7.522;2023-07-20T09:26:46;1.27;;;0.50;;
58637;SDS011;54976;51.510;7.522;2023-07-20T09:29:49;0.93;;;0.50;;
58637;SDS011;54976;51.510;7.522;2023-07-20T09:32:50;2.08;;;0.40;;
58637;SDS011;54976;51.510;7.522;2023-07-20T09:35:51;0.55;;;0.40;;
58637;SDS011;54976;51.510;7.522;2023-07-20T09:38:51;0.38;;;0.30;;
58637;SDS011;54976;51.510;7.522;2023-07-20T09:41:52;0.73;;;0.10;;
58637;SDS011;54976;51.510;7.522;2023-07-20T09:44:53;0.30;;;0.15;;
58637;SDS011;54976;51.510;7.522;2023-07-20T09:47:57;0.43;;;0.22;;
58637;SDS011;54976;51.510;7.522;2023-07-20T09:51:05;2.25;;;0.35;;
58637;SDS011;54976;51.510;7.522;2023-07-20T09:54:07;1.40;;;0.40;;
58637;SDS011;54976;51.510;7.522;2023-07-20T09:57:09;0.35;;;0.20;;
58637;SDS011;54976;51.510;7.522;2023-07-20T10:00:10;2.92;;;0.40;;
58637;SDS011;54976;51.510;7.522;2023-07-20T10:03:14;0.35;;;0.30;;
58637;SDS011;54976;51.510;7.522;2023-07-20T10:06:20;0.93;;;0.30;;
58637;SDS011;54976;51.510;7.522;2023-07-20T10:09:24;1.48;;;0.30;;
58637;SDS011;54976;51.510;7.522;2023-07-20T10:12:26;0.50;;;0.30;;
58637;SDS011;54976;51.510;7.522;2023-07-20T10:18:37;1.92;;;0.25;;
58637;SDS011;54976;51.510;7.522;2023-07-20T10:21:48;0.87;;;0.30;;
58637;SDS011;54976;51.510;7.522;2023-07-20T10:24:56;1.85;;;0.35;;
58637;SDS011;54976;51.510;7.522;2023-07-20T10:27:58;1.33;;;0.35;;
58637;SDS011;54976;51.510;7.522;2023-07-20T10:31:00;1.55;;;0.38;;
58637;SDS011;54976;51.510;7.522;2023-07-20T10:34:00;1.50;;;0.30;;
58637;SDS011;54976;51.510;7.522;2023-07-20T10:37:02;0.38;;;0.28;;
58637;SDS011;54976;51.510;7.522;2023-07-20T10:43:28;0.50;;;0.40;;
58637;SDS011;54976;51.510;7.522;2023-07-20T10:53:04;2.25;;;0.50;;
58637;SDS011;54976;51.510;7.522;2023-07-20T10:56:21;3.67;;;0.40;;
58637;SDS011;54976;51.510;7.522;2023-07-20T11:02:23;0.93;;;0.50;;
58637;SDS011;54976;51.510;7.522;2023-07-20T11:05:34;0.70;;;0.60;;
58637;SDS011;54976;51.510;7.522;2023-07-20T11:08:40;2.35;;;0.40;;
58637;SDS011;54976;51.510;7.522;2023-07-20T11:11:46;0.50;;;0.30;;
58637;SDS011;54976;51.510;7.522;2023-07-20T11:14:54;1.00;;;0.40;;
58637;SDS011;54976;51.510;7.522;2023-07-20T11:18:10;2.05;;;0.40;;
58637;SDS011;54976;51.510;7.522;2023-07-20T11:21:11;0.70;;;0.50;;
58637;SDS011;54976;51.510;7.522;2023-07-20T11:24:12;2.75;;;0.70;;
58637;SDS011;54976;51.510;7.522;2023-07-20T11:27:13;0.63;;;0.38;;
58637;SDS011;54976;51.510;7.522;2023-07-20T11:30:17;1.75;;;0.63;;
58637;SDS011;54976;51.510;7.522;2023-07-20T11:33:18;0.50;;;0.47;;
58637;SDS011;54976;51.510;7.522;2023-07-20T11:36:19;2.15;;;0.70;;
58637;SDS011;54976;51.510;7.522;2023-07-20T11:39:21;1.30;;;0.70;;
58637;SDS011;54976;51.510;7.522;2023-07-20T11:42:23;0.52;;;0.50;;
58637;SDS011;54976;51.510;7.522;2023-07-20T11:45:23;1.02;;;0.50;;
58637;SDS011;54976;51.510;7.522;2023-07-20T11:48:25;2.30;;;0.60;;
58637;SDS011;54976;51.510;7.522;2023-07-20T11:51:26;0.95;;;0.57;;
58637;SDS011;54976;51.510;7.522;2023-07-20T11:54:28;0.60;;;0.60;;
58637;SDS011;54976;51.510;7.522;2023-07-20T11:57:29;3.92;;;0.90;;
58637;SDS011;54976;51.510;7.522;2023-07-20T12:00:30;0.50;;;0.45;;
58637;SDS011;54976;51.510;7.522;2023-07-20T12:03:34;3.15;;;1.10;;
58637;SDS011;54976;51.510;7.522;2023-07-20T12:06:35;1.83;;;0.88;;
58637;SDS011;54976;51.510;7.522;2023-07-20T12:09:35;1.23;;;0.77;;
58637;SDS011;54976;51.510;7.522;2023-07-20T12:12:40;1.05;;;0.60;;
58637;SDS011;54976;51.510;7.522;2023-07-20T12:15:42;1.25;;;0.47;;
58637;SDS011;54976;51.510;7.522;2023-07-20T12:18:43;1.48;;;0.80;;
58637;SDS011;54976;51.510;7.522;2023-07-20T12:21:44;1.23;;;0.85;;
58637;SDS011;54976;51.510;7.522;2023-07-20T12:24:45;0.88;;;0.50;;
58637;SDS011;54976;51.510;7.522;2023-07-20T12:27:47;0.57;;;0.57;;
58637;SDS011;54976;51.510;7.522;2023-07-20T12:30:48;2.42;;;0.50;;
58637;SDS011;54976;51.510;7.522;2023-07-20T12:33:56;0.80;;;0.52;;
58637;SDS011;54976;51.510;7.522;2023-07-20T12:36:58;0.40;;;0.40;;
58637;SDS011;54976;51.510;7.522;2023-07-20T12:39:59;0.85;;;0.70;;
58637;SDS011;54976;51.510;7.522;2023-07-20T12:43:00;0.57;;;0.50;;
58637;SDS011;54976;51.510;7.522;2023-07-20T12:46:00;1.65;;;0.40;;
58637;SDS011;54976;51.510;7.522;2023-07-20T12:49:01;1.42;;;0.43;;
58637;SDS011;54976;51.510;7.522;2023-07-20T12:52:02;0.93;;;0.50;;
58637;SDS011;54976;51.510;7.522;2023-07-20T12:55:03;1.00;;;0.50;;
58637;SDS011;54976;51.510;7.522;2023-07-20T12:58:08;0.80;;;0.45;;
58637;SDS011;54976;51.510;7.522;2023-07-20T13:01:08;0.60;;;0.50;;
58637;SDS011;54976;51.510;7.522;2023-07-20T13:04:09;1.92;;;0.32;;
58637;SDS011;54976;51.510;7.522;2023-07-20T13:07:10;1.75;;;0.40;;
58637;SDS011;54976;51.510;7.522;2023-07-20T13:10:14;5.43;;;0.40;;
58637;SDS011;54976;51.510;7.522;2023-07-20T13:13:14;10.45;;;0.50;;
58637;SDS011;54976;51.510;7.522;2023-07-20T13:16:15;1.05;;;0.30;;
58637;SDS011;54976;51.510;7.522;2023-07-20T13:19:16;0.60;;;0.30;;
58637;SDS011;54976;51.510;7.522;2023-07-20T13:22:17;1.75;;;0.43;;
58637;SDS011;54976;51.510;7.522;2023-07-20T13:25:18;1.10;;;0.38;;
58637;SDS011;54976;51.510;7.522;2023-07-20T13:28:21;3.45;;;0.40;;
58637;SDS011;54976;51.510;7.522;2023-07-20T13:31:22;0.98;;;0.30;;
58637;SDS011;54976;51.510;7.522;2023-07-20T13:34:22;1.45;;;0.40;;
58637;SDS011;54976;51.510;7.522;2023-07-20T13:37:23;0.65;;;0.47;;
58637;SDS011;54976;51.510;7.522;2023-07-20T13:40:24;1.80;;;0.50;;
58637;SDS011;54976;51.510;7.522;2023-07-20T13:43:25;1.42;;;0.38;;
58637;SDS011;54976;51.510;7.522;2023-07-20T13:46:25;0.50;;;0.40;;
58637;SDS011;54976;51.510;7.522;2023-07-20T13:49:26;0.70;;;0.40;;
58637;SDS011;54976;51.510;7.522;2023-07-20T13:52:26;0.40;;;0.20;;
58637;SDS011;54976;51.510;7.522;2023-07-20T13:55:27;0.63;;;0.30;;
58637;SDS011;54976;51.510;7.522;2023-07-20T13:58:28;0.77;;;0.38;;
58637;SDS011;54976;51.510;7.522;2023-07-20T14:01:28;1.63;;;0.47;;
58637;SDS011;54976;51.510;7.522;2023-07-20T14:04:31;1.38;;;0.40;;
58637;SDS011;54976;51.510;7.522;2023-07-20T14:07:32;0.57;;;0.43;;
58637;SDS011;54976;51.510;7.522;2023-07-20T14:10:32;0.77;;;0.35;;
58637;SDS011;54976;51.510;7.522;2023-07-20T14:13:33;0.32;;;0.30;;
58637;SDS011;54976;51.510;7.522;2023-07-20T14:16:33;1.25;;;0.47;;
58637;SDS011;54976;51.510;7.522;2023-07-20T14:19:34;0.47;;;0.38;;
58637;SDS011;54976;51.510;7.522;2023-07-20T14:22:37;4.97;;;0.52;;
58637;SDS011;54976;51.510;7.522;2023-07-20T14:25:38;0.95;;;0.43;;
58637;SDS011;54976;51.510;7.522;2023-07-20T14:28:38;0.38;;;0.30;;
58637;SDS011;54976;51.510;7.522;2023-07-20T14:31:39;1.60;;;0.45;;
58637;SDS011;54976;51.510;7.522;2023-07-20T14:34:39;0.82;;;0.40;;
58637;SDS011;54976;51.510;7.522;2023-07-20T14:37:40;2.00;;;0.45;;
58637;SDS011;54976;51.510;7.522;2023-07-20T14:40:41;1.55;;;0.47;;
58637;SDS011;54976;51.510;7.522;2023-07-20T14:43:42;2.38;;;0.50;;
58637;SDS011;54976;51.510;7.522;2023-07-20T14:46:42;0.43;;;0.43;;
58637;SDS011;54976;51.510;7.522;2023-07-20T14:49:43;1.02;;;0.30;;
58637;SDS011;54976;51.510;7.522;2023-07-20T14:52:44;1.52;;;0.50;;
58637;SDS011;54976;51.510;7.522;2023-07-20T14:55:44;1.23;;;0.50;;
58637;SDS011;54976;51.510;7.522;2023-07-20T14:58:45;0.70;;;0.50;;
58637;SDS011;54976;51.510;7.522;2023-07-20T15:01:45;1.25;;;0.50;;
58637;SDS011;54976;51.510;7.522;2023-07-20T15:04:47;0.57;;;0.50;;
58637;SDS011;54976;51.510;7.522;2023-07-20T15:07:49;0.60;;;0.32;;
58637;SDS011;54976;51.510;7.522;2023-07-20T15:10:50;0.43;;;0.40;;
58637;SDS011;54976;51.510;7.522;2023-07-20T15:13:51;3.03;;;0.45;;
58637;SDS011;54976;51.510;7.522;2023-07-20T15:16:51;1.25;;;0.30;;
58637;SDS011;54976;51.510;7.522;2023-07-20T15:19:52;0.70;;;0.50;;
58637;SDS011;54976;51.510;7.522;2023-07-20T15:22:52;1.80;;;0.65;;
58637;SDS011;54976;51.510;7.522;2023-07-20T15:25:53;1.75;;;0.60;;
58637;SDS011;54976;51.510;7.522;2023-07-20T15:28:54;1.75;;;0.35;;
58637;SDS011;54976;51.510;7.522;2023-07-20T15:31:54;2.45;;;0.40;;
58637;SDS011;54976;51.510;7.522;2023-07-20T15:34:55;0.47;;;0.30;;
58637;SDS011;54976;51.510;7.522;2023-07-20T15:37:56;0.73;;;0.50;;
58637;SDS011;54976;51.510;7.522;2023-07-20T15:40:56;0.98;;;0.45;;
58637;SDS011;54976;51.510;7.522;2023-07-20T15:44:00;2.92;;;0.57;;
58637;SDS011;54976;51.510;7.522;2023-07-20T15:47:01;4.10;;;0.70;;
58637;SDS011;54976;51.510;7.522;2023-07-20T15:50:02;1.30;;;0.80;;
58637;SDS011;54976;51.510;7.522;2023-07-20T15:53:03;1.48;;;0.57;;
58637;SDS011;54976;51.510;7.522;2023-07-20T15:56:04;0.80;;;0.40;;
58637;SDS011;54976;51.510;7.522;2023-07-20T15:59:06;1.20;;;0.30;;
58637;SDS011;54976;51.510;7.522;2023-07-20T16:02:08;0.82;;;0.50;;
58637;SDS011;54976;51.510;7.522;2023-07-20T16:05:09;1.00;;;0.55;;
58637;SDS011;54976;51.510;7.522;2023-07-20T16:08:09;0.88;;;0.50;;
58637;SDS011;54976;51.510;7.522;2023-07-20T16:11:10;0.52;;;0.50;;
58637;SDS011;54976;51.510;7.522;2023-07-20T16:14:10;1.20;;;0.70;;
58637;SDS011;54976;51.510;7.522;2023-07-20T16:17:12;4.15;;;0.88;;
58637;SDS011;54976;51.510;7.522;2023-07-20T16:20:12;4.13;;;0.80;;
58637;SDS011;54976;51.510;7.522;2023-07-20T16:23:13;0.90;;;0.60;;
58637;SDS011;54976;51.510;7.522;2023-07-20T16:26:14;1.42;;;0.40;;
58637;SDS011;54976;51.510;7.522;2023-07-20T16:29:14;1.63;;;0.40;;
58637;SDS011;54976;51.510;7.522;2023-07-20T16:32:15;0.82;;;0.70;;
58637;SDS011;54976;51.510;7.522;2023-07-20T16:35:16;3.60;;;0.70;;
58637;SDS011;54976;51.510;7.522;2023-07-20T16:38:18;2.92;;;0.57;;
58637;SDS011;54976;51.510;7.522;2023-07-20T16:41:19;1.08;;;0.63;;
58637;SDS011;54976;51.510;7.522;2023-07-20T16:44:19;1.05;;;0.63;;
58637;SDS011;54976;51.510;7.522;2023-07-20T16:47:20;3.63;;;0.50;;
58637;SDS011;54976;51.510;7.522;2023-07-20T16:50:21;1.50;;;0.55;;
58637;SDS011;54976;51.510;7.522;2023-07-20T16:53:22;2.25;;;0.88;;
58637;SDS011;54976;51.510;7.522;2023-07-20T16:56:23;2.25;;;0.60;;
58637;SDS011;54976;51.510;7.522;2023-07-20T16:59:24;3.03;;;0.50;;
58637;SDS011;54976;51.510;7.522;2023-07-20T17:02:24;0.75;;;0.40;;
58637;SDS011;54976;51.510;7.522;2023-07-20T17:05:25;0.90;;;0.50;;
58637;SDS011;54976;51.510;7.522;2023-07-20T17:08:26;1.58;;;0.50;;
58637;SDS011;54976;51.510;7.522;2023-07-20T17:11:26;1.63;;;0.70;;
58637;SDS011;54976;51.510;7.522;2023-07-20T17:14:27;0.85;;;0.60;;
58637;SDS011;54976;51.510;7.522;2023-07-20T17:17:28;0.80;;;0.60;;
58637;SDS011;54976;51.510;7.522;2023-07-20T17:20:28;0.73;;;0.47;;
58637;SDS011;54976;51.510;7.522;2023-07-20T17:23:29;1.38;;;0.70;;
58637;SDS011;54976;51.510;7.522;2023-07-20T17:26:31;1.25;;;0.70;;
58637;SDS011;54976;51.510;7.522;2023-07-20T17:29:31;2.47;;;0.60;;
58637;SDS011;54976;51.510;7.522;2023-07-20T17:32:33;0.75;;;0.55;;
58637;SDS011;54976;51.510;7.522;2023-07-20T17:35:33;3.08;;;0.85;;
58637;SDS011;54976;51.510;7.522;2023-07-20T17:38:34;2.28;;;0.60;;
58637;SDS011;54976;51.510;7.522;2023-07-20T17:41:35;3.60;;;0.80;;
58637;SDS011;54976;51.510;7.522;2023-07-20T17:44:35;0.75;;;0.60;;
58637;SDS011;54976;51.510;7.522;2023-07-20T17:47:39;0.95;;;0.60;;
58637;SDS011;54976;51.510;7.522;2023-07-20T17:50:41;1.98;;;0.50;;
58637;SDS011;54976;51.510;7.522;2023-07-20T17:53:42;0.93;;;0.45;;
58637;SDS011;54976;51.510;7.522;2023-07-20T17:56:43;0.82;;;0.60;;
58637;SDS011;54976;51.510;7.522;2023-07-20T17:59:44;0.95;;;0.45;;
58637;SDS011;54976;51.510;7.522;2023-07-20T18:02:44;2.30;;;0.55;;
58637;SDS011;54976;51.510;7.522;2023-07-20T18:05:45;1.33;;;0.60;;
58637;SDS011;54976;51.510;7.522;2023-07-20T18:08:46;2.25;;;0.60;;
58637;SDS011;54976;51.510;7.522;2023-07-20T18:11:47;1.00;;;0.45;;
58637;SDS011;54976;51.510;7.522;2023-07-20T18:14:47;1.67;;;0.45;;
58637;SDS011;54976;51.510;7.522;2023-07-20T18:17:48;0.73;;;0.50;;
58637;SDS011;54976;51.510;7.522;2023-07-20T18:20:48;0.68;;;0.50;;
58637;SDS011;54976;51.510;7.522;2023-07-20T18:23:49;0.85;;;0.40;;
58637;SDS011;54976;51.510;7.522;2023-07-20T18:26:51;1.13;;;0.65;;
58637;SDS011;54976;51.510;7.522;2023-07-20T18:29:53;4.00;;;0.50;;